Time;durP1;ratioP1;P1;durP2;ratioP2;P2;SDS_P1;SDS_P2;PMS_P1;PMS_P2;Temp;Humidity;BMP_temperature;BMP_pressure;BME280_temperature;BME280_humidity;BME280_pressure;Samples;Min_cycle;Max_cycle;Signal;HPM_P1;HPM_P2
2023/06/04 00:00:46;;;;;;;16.73;9.40;;;24.10;76.30;;;;;;5113164;28;20416;-83
2023/06/04 00:03:12;;;;;;;10.48;8.98;;;24.10;76.50;;;;;;5112672;28;20023;-83
2023/06/04 00:05:37;;;;;;;15.70;8.90;;;24.00;76.50;;;;;;5113370;28;20411;-83
2023/06/04 00:08:03;;;;;;;9.15;8.25;;;24.00;76.70;;;;;;5114429;28;20151;-82
2023/06/04 00:10:29;;;;;;;11.30;9.02;;;24.00;76.90;;;;;;5112676;28;20102;-82
2023/06/04 00:12:55;;;;;;;12.35;9.45;;;24.00;76.90;;;;;;5112692;28;20467;-83
2023/06/04 00:15:20;;;;;;;11.60;8.68;;;24.00;77.10;;;;;;5111672;28;20032;-83
2023/06/04 00:17:46;;;;;;;14.23;9.30;;;24.00;77.30;;;;;;5113093;28;20471;-85
2023/06/04 00:20:12;;;;;;;9.88;8.85;;;24.00;77.50;;;;;;5112601;28;20057;-83
2023/06/04 00:22:41;;;;;;;12.35;9.45;;;24.00;77.50;;;;;;5113090;28;20023;-84
2023/06/04 00:25:08;;;;;;;10.25;9.00;;;24.00;77.60;;;;;;5113187;28;20027;-84
2023/06/04 00:27:34;;;;;;;10.80;9.43;;;24.00;77.90;;;;;;5112589;28;20335;-83
2023/06/04 00:29:59;;;;;;;12.75;11.32;;;24.00;77.60;;;;;;5113703;28;20028;-84
2023/06/04 00:32:28;;;;;;;13.20;11.80;;;24.00;78.00;;;;;;5116826;28;20145;-83
2023/06/04 00:34:57;;;;;;;17.00;11.75;;;24.00;78.70;;;;;;5112454;28;20047;-84
2023/06/04 00:37:24;;;;;;;14.38;11.93;;;24.00;77.00;;;;;;5112772;28;20052;-84
2023/06/04 00:39:52;;;;;;;16.33;12.88;;;24.00;76.90;;;;;;5112409;28;20178;-83
2023/06/04 00:42:18;;;;;;;17.05;13.27;;;23.90;76.70;;;;;;5112443;28;20024;-84
2023/06/04 00:44:45;;;;;;;16.92;13.82;;;23.90;76.70;;;;;;5112711;28;20027;-83
2023/06/04 00:47:15;;;;;;;17.30;14.32;;;23.90;76.40;;;;;;5112828;28;20494;-82
2023/06/04 00:49:41;;;;;;;16.77;14.32;;;23.70;76.50;;;;;;5121476;28;20125;-84
2023/06/04 00:52:12;;;;;;;15.93;13.85;;;23.60;76.60;;;;;;5127012;28;20098;-83
2023/06/04 00:54:37;;;;;;;15.48;13.63;;;23.50;76.40;;;;;;5121535;28;20027;-83
2023/06/04 00:57:04;;;;;;;19.90;14.02;;;23.50;76.50;;;;;;5112545;28;20034;-84
2023/06/04 00:59:32;;;;;;;16.50;13.00;;;23.30;76.30;;;;;;5114109;28;20027;-84
2023/06/04 01:02:14;;;;;;;17.23;12.95;;;23.30;76.00;;;;;;5113246;28;20027;-83
2023/06/04 01:04:44;;;;;;;16.02;13.52;;;23.30;76.00;;;;;;5112218;28;20047;-83
2023/06/04 01:07:13;;;;;;;17.02;12.23;;;23.20;75.70;;;;;;5112922;28;20023;-82
2023/06/04 01:09:39;;;;;;;15.48;11.90;;;23.20;75.50;;;;;;5117541;28;20039;-83
2023/06/04 01:12:06;;;;;;;14.35;11.10;;;23.20;75.40;;;;;;5122105;28;20032;-83
2023/06/04 01:14:35;;;;;;;14.20;11.02;;;23.30;75.60;;;;;;5112681;28;20032;-82
2023/06/04 01:17:13;;;;;;;13.88;10.82;;;23.30;75.10;;;;;;5112735;28;20031;-83
2023/06/04 01:19:59;;;;;;;15.57;11.05;;;23.30;74.80;;;;;;5111979;28;20034;-82
2023/06/04 01:22:51;;;;;;;16.38;11.82;;;23.30;75.60;;;;;;5111878;28;20034;-83
2023/06/04 01:25:38;;;;;;;14.25;11.35;;;23.20;75.40;;;;;;5111831;28;20023;-83
2023/06/04 01:28:10;;;;;;;16.42;11.98;;;23.20;75.40;;;;;;5113676;28;20347;-83
2023/06/04 01:30:43;;;;;;;15.88;11.93;;;23.20;74.90;;;;;;5112147;28;20316;-84
2023/06/04 01:33:10;;;;;;;16.25;11.07;;;23.20;74.60;;;;;;5112132;28;20035;-83
2023/06/04 01:35:36;;;;;;;15.95;12.43;;;23.20;74.40;;;;;;5113228;28;20149;-83
2023/06/04 01:38:02;;;;;;;16.73;12.35;;;23.10;74.40;;;;;;5110301;28;20039;-84
2023/06/04 01:40:28;;;;;;;15.38;11.40;;;23.20;74.50;;;;;;5111529;28;20020;-83
2023/06/04 01:42:55;;;;;;;15.43;12.25;;;23.10;74.40;;;;;;5111537;28;20031;-83
2023/06/04 01:45:22;;;;;;;13.13;11.30;;;23.10;74.20;;;;;;5111208;28;20363;-79
2023/06/04 01:47:48;;;;;;;14.63;10.95;;;23.10;74.20;;;;;;5111568;28;20011;-83
2023/06/04 01:50:13;;;;;;;14.70;10.65;;;23.10;74.40;;;;;;5110617;28;20022;-83
2023/06/04 01:52:40;;;;;;;13.32;10.55;;;23.00;74.60;;;;;;5111889;28;20524;-83
2023/06/04 01:55:08;;;;;;;16.00;10.73;;;22.90;74.50;;;;;;5111304;28;20053;-83
2023/06/04 01:57:35;;;;;;;13.52;10.05;;;22.90;74.40;;;;;;5111645;28;20405;-83
2023/06/04 02:00:03;;;;;;;14.10;9.07;;;23.00;74.40;;;;;;5111072;28;20035;-83
2023/06/04 02:02:28;;;;;;;13.88;9.05;;;23.00;74.30;;;;;;5111445;28;20039;-84
2023/06/04 02:04:54;;;;;;;11.20;9.02;;;22.90;74.10;;;;;;5111720;28;20047;-83
2023/06/04 02:07:26;;;;;;;14.63;8.93;;;22.90;74.10;;;;;;5112894;28;20028;-84
2023/06/04 02:09:52;;;;;;;13.65;8.90;;;23.00;74.80;;;;;;5114263;28;20027;-82
2023/06/04 02:12:18;;;;;;;16.27;9.00;;;23.00;73.80;;;;;;5113673;28;20396;-84
2023/06/04 02:14:46;;;;;;;14.68;9.15;;;23.00;74.00;;;;;;5113626;28;20123;-83
2023/06/04 02:17:12;;;;;;;13.15;8.65;;;23.00;74.60;;;;;;5115134;28;20546;-83
2023/06/04 02:19:49;;;;;;;13.63;8.70;;;23.00;74.20;;;;;;5115043;28;20047;-83
2023/06/04 02:22:16;;;;;;;13.05;9.60;;;23.00;74.20;;;;;;5115179;28;20060;-83
2023/06/04 02:24:42;;;;;;;13.85;8.98;;;22.90;74.00;;;;;;5116422;28;20103;-82
2023/06/04 02:27:08;;;;;;;11.75;8.82;;;23.00;74.20;;;;;;5115030;28;20098;-83
2023/06/04 02:29:35;;;;;;;15.85;9.20;;;22.90;73.90;;;;;;5115467;28;20032;-83
2023/06/04 02:32:01;;;;;;;14.20;9.02;;;22.90;74.30;;;;;;5116761;28;20050;-83
2023/06/04 02:34:27;;;;;;;14.35;8.80;;;22.90;74.30;;;;;;5126733;28;20105;-82
2023/06/04 02:36:53;;;;;;;12.68;8.68;;;22.80;74.30;;;;;;5124216;28;20039;-83
2023/06/04 02:39:19;;;;;;;15.20;9.00;;;22.90;74.40;;;;;;5121338;28;20069;-81
2023/06/04 02:41:45;;;;;;;19.58;9.60;;;22.90;74.20;;;;;;5116113;28;20122;-84
2023/06/04 02:44:11;;;;;;;11.10;8.40;;;22.90;74.10;;;;;;5115145;28;20099;-83
2023/06/04 02:46:37;;;;;;;14.13;8.65;;;22.90;74.10;;;;;;5114694;28;20024;-82
2023/06/04 02:49:03;;;;;;;14.05;8.55;;;22.80;74.00;;;;;;5114800;28;20164;-81
2023/06/04 02:51:29;;;;;;;14.68;8.77;;;22.80;73.90;;;;;;5114141;28;20055;-83
2023/06/04 02:53:55;;;;;;;13.25;8.77;;;22.70;74.00;;;;;;5113990;28;20056;-82
2023/06/04 02:56:20;;;;;;;15.23;9.25;;;22.70;74.70;;;;;;5114117;28;20028;-83
2023/06/04 02:58:55;;;;;;;15.43;8.80;;;22.60;74.20;;;;;;5114967;28;20494;-83
2023/06/04 03:01:25;;;;;;;11.13;7.88;;;22.60;74.20;;;;;;5112758;28;20093;-84
2023/06/04 03:03:52;;;;;;;12.30;8.88;;;22.50;74.10;;;;;;5113725;28;20522;-83
2023/06/04 03:06:20;;;;;;;14.70;9.52;;;22.50;74.10;;;;;;5114155;28;20024;-82
2023/06/04 03:08:46;;;;;;;12.43;8.15;;;22.50;74.20;;;;;;5113642;28;20027;-82
2023/06/04 03:11:12;;;;;;;15.10;9.20;;;22.50;74.40;;;;;;5113483;28;20031;-82
2023/06/04 03:13:38;;;;;;;11.48;8.82;;;22.50;74.60;;;;;;5115257;28;20027;-82
2023/06/04 03:16:09;;;;;;;13.50;9.15;;;22.50;74.50;;;;;;5120018;28;20118;-82
2023/06/04 03:18:41;;;;;;;13.88;8.52;;;22.50;74.70;;;;;;5114369;28;20382;-82
2023/06/04 03:21:08;;;;;;;11.48;8.75;;;22.40;75.40;;;;;;5113503;28;20100;-83
2023/06/04 03:23:34;;;;;;;13.52;9.07;;;22.40;74.40;;;;;;5113584;28;20054;-84
2023/06/04 03:26:03;;;;;;;13.13;8.60;;;22.40;74.40;;;;;;5113655;28;20057;-83
2023/06/04 03:28:29;;;;;;;11.18;8.50;;;22.40;74.50;;;;;;5113504;27;20040;-83
2023/06/04 03:30:55;;;;;;;13.85;8.95;;;22.40;74.60;;;;;;5113390;28;20045;-83
2023/06/04 03:33:21;;;;;;;16.60;8.43;;;22.30;74.50;;;;;;5114795;28;20103;-83
2023/06/04 03:35:48;;;;;;;12.15;8.85;;;22.30;74.90;;;;;;5113634;28;20059;-83
2023/06/04 03:38:15;;;;;;;15.02;8.88;;;22.30;74.70;;;;;;5112535;28;20390;-82
2023/06/04 03:40:41;;;;;;;13.98;8.45;;;22.30;74.50;;;;;;5121623;28;20085;-81
2023/06/04 03:43:10;;;;;;;10.90;7.72;;;22.20;75.30;;;;;;5113588;28;20043;-83
2023/06/04 03:45:36;;;;;;;12.52;8.32;;;22.20;75.40;;;;;;5113231;28;20087;-83
2023/06/04 03:48:02;;;;;;;12.02;7.85;;;22.20;74.40;;;;;;5113064;28;20556;-83
2023/06/04 03:50:27;;;;;;;12.93;7.82;;;22.20;74.50;;;;;;5114577;28;20035;-84
2023/06/04 03:52:53;;;;;;;13.23;8.32;;;22.20;74.30;;;;;;5113275;28;20069;-83
2023/06/04 03:55:19;;;;;;;13.52;7.97;;;22.10;74.30;;;;;;5112950;28;20119;-83
2023/06/04 03:57:45;;;;;;;19.02;8.52;;;22.00;74.30;;;;;;5112842;28;20019;-83
2023/06/04 04:00:12;;;;;;;14.32;9.10;;;22.00;74.30;;;;;;5113294;28;20059;-84
2023/06/04 04:02:42;;;;;;;13.45;8.45;;;22.00;74.70;;;;;;5114009;28;20024;-83
2023/06/04 04:05:09;;;;;;;12.60;8.25;;;22.00;75.20;;;;;;5130683;28;20050;-83
2023/06/04 04:07:35;;;;;;;12.43;8.65;;;21.90;74.40;;;;;;5114137;28;20447;-82
2023/06/04 04:10:01;;;;;;;12.45;8.20;;;21.90;74.40;;;;;;5112967;28;20059;-82
2023/06/04 04:12:26;;;;;;;13.15;8.55;;;21.90;74.40;;;;;;5112516;28;20030;-83
2023/06/04 04:14:52;;;;;;;16.27;8.70;;;21.90;74.70;;;;;;5112707;28;20107;-83
2023/06/04 04:17:20;;;;;;;11.20;8.48;;;21.90;74.60;;;;;;5112519;28;20084;-83
2023/06/04 04:19:46;;;;;;;13.18;8.43;;;21.80;74.50;;;;;;5113129;28;20023;-82
2023/06/04 04:22:12;;;;;;;13.25;8.35;;;21.90;74.50;;;;;;5117487;28;20019;-82
2023/06/04 04:24:38;;;;;;;14.68;8.73;;;21.90;74.40;;;;;;5119599;28;20011;-83
2023/06/04 04:27:05;;;;;;;13.13;8.52;;;22.00;74.10;;;;;;5116109;28;20406;-82
2023/06/04 04:29:34;;;;;;;13.50;8.63;;;22.00;74.00;;;;;;5113226;28;20023;-83
2023/06/04 04:32:01;;;;;;;14.07;8.00;;;22.00;74.30;;;;;;5112256;28;20034;-82
2023/06/04 04:34:27;;;;;;;14.90;9.63;;;22.00;73.60;;;;;;5112790;28;20031;-82
2023/06/04 04:36:53;;;;;;;14.80;8.82;;;22.00;73.70;;;;;;5111655;28;20043;-82
2023/06/04 04:39:24;;;;;;;14.82;8.60;;;22.00;73.60;;;;;;5112807;28;20458;-83
2023/06/04 04:41:50;;;;;;;13.82;7.85;;;22.00;73.30;;;;;;5113445;28;20032;-82
2023/06/04 04:44:15;;;;;;;14.02;7.72;;;22.00;73.50;;;;;;5119780;28;20031;-82
2023/06/04 04:46:41;;;;;;;12.27;7.65;;;22.00;73.70;;;;;;5112941;28;20027;-82
2023/06/04 04:49:07;;;;;;;13.20;7.75;;;22.00;73.50;;;;;;5114545;28;20095;-82
2023/06/04 04:51:33;;;;;;;11.27;7.43;;;22.00;73.30;;;;;;5112473;28;20480;-83
2023/06/04 04:54:02;;;;;;;13.85;8.27;;;22.00;73.50;;;;;;5112436;28;20035;-82
2023/06/04 04:56:28;;;;;;;12.63;8.15;;;22.00;73.40;;;;;;5112215;28;20031;-82
2023/06/04 04:58:54;;;;;;;12.95;7.80;;;22.00;72.90;;;;;;5112667;28;20104;-82
2023/06/04 05:01:21;;;;;;;12.63;7.70;;;22.00;72.80;;;;;;5112712;28;20490;-82
2023/06/04 05:03:47;;;;;;;11.88;7.95;;;22.00;72.80;;;;;;5111907;28;20090;-83
2023/06/04 05:06:12;;;;;;;13.60;8.20;;;22.10;72.70;;;;;;5112504;28;20102;-82
2023/06/04 05:08:38;;;;;;;13.77;7.72;;;22.20;72.80;;;;;;5112453;28;20030;-83
2023/06/04 05:11:04;;;;;;;13.10;7.78;;;22.30;72.70;;;;;;5112213;28;20031;-81
2023/06/04 05:13:30;;;;;;;13.75;7.72;;;22.40;72.40;;;;;;5112249;28;20028;-84
2023/06/04 05:15:56;;;;;;;11.75;7.88;;;22.50;72.30;;;;;;5112683;28;20035;-83
2023/06/04 05:18:28;;;;;;;11.70;7.90;;;22.60;72.00;;;;;;5112734;28;20020;-83
2023/06/04 05:21:00;;;;;;;11.95;7.60;;;23.00;71.90;;;;;;5111122;28;20494;-84
2023/06/04 05:23:34;;;;;;;11.35;7.40;;;23.20;71.80;;;;;;5112695;28;20024;-82
2023/06/04 05:26:00;;;;;;;;;;;23.50;70.60;;;;;;5114385;28;20028;-81
2023/06/04 05:28:26;;;;;;;13.45;8.55;;;23.80;70.10;;;;;;5113349;28;19967;-81
2023/06/04 05:30:58;;;;;;;11.10;8.00;;;24.00;69.60;;;;;;5117073;28;20059;-79
2023/06/04 05:33:24;;;;;;;10.73;7.72;;;24.30;69.30;;;;;;5115656;28;20112;-82
2023/06/04 05:35:57;;;;;;;13.77;7.88;;;24.40;68.70;;;;;;5112831;28;20058;-83
2023/06/04 05:38:25;;;;;;;13.05;8.45;;;24.70;68.40;;;;;;5112403;28;20496;-82
2023/06/04 05:40:55;;;;;;;10.25;7.05;;;25.00;68.20;;;;;;5112190;28;20046;-82
2023/06/04 05:43:21;;;;;;;13.00;7.43;;;25.20;67.60;;;;;;5112928;28;20345;-82
2023/06/04 05:45:47;;;;;;;12.65;8.07;;;25.30;67.20;;;;;;5120836;28;20040;-82
2023/06/04 05:48:13;;;;;;;9.95;7.85;;;25.30;67.10;;;;;;5125495;28;20019;-82
2023/06/04 05:50:39;;;;;;;12.57;7.50;;;25.30;67.10;;;;;;5118409;28;20024;-84
2023/06/04 05:53:05;;;;;;;11.30;7.50;;;25.30;66.80;;;;;;5116881;28;20072;-81
2023/06/04 05:55:31;;;;;;;11.48;7.68;;;25.40;66.90;;;;;;5122065;28;20035;-82
2023/06/04 05:57:56;;;;;;;9.68;7.43;;;25.50;66.70;;;;;;5118219;28;20027;-83
2023/06/04 06:00:23;;;;;;;10.45;7.00;;;25.50;66.30;;;;;;5119741;28;20411;-83
2023/06/04 06:02:55;;;;;;;13.15;8.15;;;25.60;66.30;;;;;;5117254;28;20362;-83
2023/06/04 06:05:21;;;;;;;10.93;7.25;;;25.60;65.90;;;;;;5116217;28;20070;-85
2023/06/04 06:07:47;;;;;;;13.52;8.02;;;25.50;66.40;;;;;;5117212;28;20020;-82
2023/06/04 06:10:13;;;;;;;14.35;7.85;;;25.50;66.20;;;;;;5116262;28;20085;-83
2023/06/04 06:12:39;;;;;;;10.07;7.18;;;25.80;65.90;;;;;;5115638;28;20026;-82
2023/06/04 06:15:06;;;;;;;14.60;7.38;;;25.90;65.80;;;;;;5115741;28;20348;-83
2023/06/04 06:17:32;;;;;;;12.63;7.90;;;26.00;65.40;;;;;;5116121;28;20036;-83
2023/06/04 06:19:58;;;;;;;15.10;7.50;;;26.10;65.20;;;;;;5115783;28;20420;-82
2023/06/04 06:22:24;;;;;;;13.90;6.97;;;26.20;65.00;;;;;;5115590;28;20107;-84
2023/06/04 06:24:50;;;;;;;12.10;7.72;;;26.30;65.00;;;;;;5115818;28;20456;-83
2023/06/04 06:27:16;;;;;;;10.73;8.13;;;26.30;65.00;;;;;;5115594;28;20109;-82
2023/06/04 06:29:42;;;;;;;10.63;8.30;;;26.30;64.80;;;;;;5115651;28;20012;-83
2023/06/04 06:32:10;;;;;;;10.63;8.05;;;26.40;64.70;;;;;;5114223;28;20027;-83
2023/06/04 06:34:35;;;;;;;9.15;7.68;;;26.50;65.00;;;;;;5115060;28;20031;-83
2023/06/04 06:37:01;;;;;;;11.10;7.82;;;26.50;64.90;;;;;;5114423;28;20031;-83
2023/06/04 06:39:26;;;;;;;12.13;7.70;;;26.60;64.90;;;;;;5114670;28;20030;-83
2023/06/04 06:41:52;;;;;;;11.13;7.55;;;26.60;65.00;;;;;;5115129;28;20110;-83
2023/06/04 06:44:18;;;;;;;14.10;8.93;;;26.70;64.90;;;;;;5115186;28;20387;-76
2023/06/04 06:46:44;;;;;;;13.73;8.73;;;26.70;64.80;;;;;;5114449;28;20371;-83
2023/06/04 06:49:09;;;;;;;13.25;8.57;;;26.80;65.20;;;;;;5114529;28;20408;-83
2023/06/04 06:51:35;;;;;;;14.30;8.18;;;26.80;65.30;;;;;;5114740;28;20024;-83
2023/06/04 06:54:01;;;;;;;12.15;8.43;;;26.90;65.50;;;;;;5114252;28;20102;-82
2023/06/04 06:56:26;;;;;;;14.38;8.57;;;26.90;65.20;;;;;;5114244;28;20031;-83
2023/06/04 06:58:52;;;;;;;11.68;8.32;;;26.90;65.50;;;;;;5122844;28;20066;-84
2023/06/04 07:01:18;;;;;;;17.00;9.85;;;26.90;65.80;;;;;;5128080;28;20027;-83
2023/06/04 07:03:43;;;;;;;12.68;8.45;;;26.90;65.80;;;;;;5114612;28;20011;-83
2023/06/04 07:06:09;;;;;;;12.80;9.07;;;26.90;65.90;;;;;;5118542;28;20057;-82
2023/06/04 07:08:35;;;;;;;17.52;8.88;;;26.90;65.90;;;;;;5125130;28;20011;-80
2023/06/04 07:11:02;;;;;;;11.07;8.77;;;26.90;65.70;;;;;;5131453;27;20032;-82
2023/06/04 07:13:28;;;;;;;15.93;8.50;;;26.90;66.00;;;;;;5127111;28;20110;-82
2023/06/04 07:15:54;;;;;;;12.38;9.55;;;26.90;66.10;;;;;;5129085;28;20069;-82
2023/06/04 07:18:20;;;;;;;10.93;8.23;;;26.90;66.10;;;;;;5130187;28;20459;-82
2023/06/04 07:20:46;;;;;;;12.18;9.25;;;26.90;66.00;;;;;;5129736;28;20058;-72
2023/06/04 07:23:12;;;;;;;12.02;9.40;;;26.80;66.30;;;;;;5130260;28;20020;-83
2023/06/04 07:25:37;;;;;;;11.43;8.65;;;26.80;66.50;;;;;;5131921;28;20022;-82
2023/06/04 07:28:04;;;;;;;13.95;9.95;;;26.70;66.90;;;;;;5133223;28;20022;-83
2023/06/04 07:30:31;;;;;;;12.68;9.63;;;26.60;67.20;;;;;;5125372;28;20031;-82
2023/06/04 07:32:57;;;;;;;13.63;9.32;;;26.60;67.60;;;;;;5126826;28;20035;-82
2023/06/04 07:35:23;;;;;;;18.85;10.57;;;26.60;67.70;;;;;;5128827;28;20040;-82
2023/06/04 07:37:49;;;;;;;17.35;10.48;;;26.60;67.70;;;;;;5129662;28;20075;-84
2023/06/04 07:40:16;;;;;;;12.45;9.10;;;26.60;68.00;;;;;;5129165;27;20023;-83
2023/06/04 07:42:42;;;;;;;12.65;9.40;;;26.50;68.10;;;;;;5128302;28;20098;-84
2023/06/04 07:45:08;;;;;;;11.82;8.45;;;26.60;68.40;;;;;;5126522;28;20031;-82
2023/06/04 07:47:36;;;;;;;13.38;9.10;;;26.60;68.10;;;;;;5127246;28;20044;-82
2023/06/04 07:50:03;;;;;;;10.35;8.70;;;26.60;68.00;;;;;;5127461;28;20042;-82
2023/06/04 07:52:28;;;;;;;15.50;10.55;;;26.60;67.90;;;;;;5128903;28;20020;-83
2023/06/04 07:54:55;;;;;;;14.75;8.73;;;26.60;68.00;;;;;;5128642;28;20023;-80
2023/06/04 07:57:21;;;;;;;14.27;10.35;;;26.60;67.90;;;;;;5129873;28;20024;-82
2023/06/04 07:59:46;;;;;;;15.90;9.20;;;26.50;68.00;;;;;;5129496;28;20099;-83
2023/06/04 08:02:12;;;;;;;13.48;10.00;;;26.40;68.20;;;;;;5128446;28;20023;-83
2023/06/04 08:04:39;;;;;;;17.90;12.80;;;26.40;68.80;;;;;;5127544;28;20047;-82
2023/06/04 08:07:05;;;;;;;12.40;9.70;;;26.50;69.20;;;;;;5127441;28;20027;-82
2023/06/04 08:09:31;;;;;;;18.02;9.98;;;26.50;68.60;;;;;;5125013;28;20020;-83
2023/06/04 08:11:56;;;;;;;15.48;10.02;;;26.50;68.70;;;;;;5129244;28;20032;-83
2023/06/04 08:14:24;;;;;;;15.50;10.63;;;26.60;68.90;;;;;;5128006;28;20023;-84
2023/06/04 08:16:50;;;;;;;12.80;8.48;;;26.60;68.70;;;;;;5128650;28;20039;-82
2023/06/04 08:19:16;;;;;;;16.10;10.65;;;26.60;68.80;;;;;;5129572;28;20020;-84
2023/06/04 08:21:41;;;;;;;16.05;10.43;;;26.50;68.80;;;;;;5130854;28;20055;-84
2023/06/04 08:24:09;;;;;;;16.73;11.18;;;26.50;69.20;;;;;;5129796;28;20047;-83
2023/06/04 08:26:34;;;;;;;12.95;9.73;;;26.40;69.20;;;;;;5133598;27;20193;-84
2023/06/04 08:29:04;;;;;;;11.38;9.10;;;26.30;69.20;;;;;;5128435;28;20084;-84
2023/06/04 08:31:29;;;;;;;10.35;9.25;;;26.30;69.40;;;;;;5127275;28;20077;-83
2023/06/04 08:33:55;;;;;;;10.45;8.40;;;26.30;69.60;;;;;;5126592;28;20028;-82
2023/06/04 08:36:21;;;;;;;12.85;9.30;;;26.30;69.50;;;;;;5127468;28;20035;-83
2023/06/04 08:38:50;;;;;;;13.88;8.35;;;26.40;69.20;;;;;;5126081;28;20027;-84
2023/06/04 08:41:26;;;;;;;10.95;8.52;;;26.40;69.00;;;;;;5137744;27;20023;-83
2023/06/04 08:48:56;;;;;;;10.43;7.50;;;26.60;68.10;;;;;;5048494;28;20045;-83
2023/06/04 08:51:22;;;;;;;13.57;8.35;;;26.60;68.60;;;;;;5048723;28;20062;-84
2023/06/04 08:53:52;;;;;;;11.82;8.25;;;26.50;68.50;;;;;;5177938;22;20444;-83
2023/06/04 08:56:19;;;;;;;11.82;7.80;;;26.60;67.50;;;;;;5063050;28;20040;-83
2023/06/04 08:58:46;;;;;;;9.65;7.82;;;26.60;67.30;;;;;;5062117;28;20024;-84
2023/06/04 09:01:14;;;;;;;11.40;8.73;;;26.70;67.30;;;;;;5061868;28;20112;-84
2023/06/04 09:03:41;;;;;;;9.88;8.25;;;26.70;67.40;;;;;;5063385;28;20040;-85
2023/06/04 09:06:08;;;;;;;10.25;7.53;;;26.70;67.10;;;;;;5062808;28;20075;-84
2023/06/04 09:08:37;;;;;;;12.63;8.30;;;26.80;67.10;;;;;;5062360;28;20013;-83
2023/06/04 09:11:10;;;;;;;16.13;8.52;;;26.80;67.20;;;;;;5059520;28;20021;-84
2023/06/04 09:13:36;;;;;;;9.53;7.77;;;26.90;67.20;;;;;;5058718;28;20051;-85
2023/06/04 09:16:03;;;;;;;12.50;7.22;;;26.90;67.00;;;;;;5053359;28;20033;-82
2023/06/04 09:18:29;;;;;;;12.52;7.88;;;26.90;67.00;;;;;;5054491;28;20079;-85
2023/06/04 09:21:06;;;;;;;11.30;8.35;;;26.90;66.70;;;;;;5055557;28;20020;-85
2023/06/04 09:23:45;;;;;;;12.63;7.97;;;26.90;66.70;;;;;;5055382;28;20397;-83
2023/06/04 09:26:11;;;;;;;10.70;7.70;;;27.00;66.50;;;;;;5055248;28;20021;-84
2023/06/04 09:28:41;;;;;;;11.18;8.57;;;26.90;66.40;;;;;;5055625;28;20039;-83
2023/06/04 09:31:14;;;;;;;10.27;7.93;;;26.90;66.30;;;;;;5055164;28;20029;-84
2023/06/04 09:33:49;;;;;;;11.03;7.60;;;27.00;66.00;;;;;;5056404;28;20032;-84
2023/06/04 09:36:15;;;;;;;10.38;7.05;;;27.00;66.20;;;;;;5055111;28;20036;-84
2023/06/04 09:38:42;;;;;;;12.32;8.50;;;27.10;65.90;;;;;;5056103;28;20449;-85
2023/06/04 09:41:15;;;;;;;13.63;8.52;;;27.10;65.40;;;;;;5055973;28;20083;-84
2023/06/04 09:43:41;;;;;;;13.98;8.40;;;27.10;65.30;;;;;;5056917;28;20469;-84
2023/06/04 09:46:11;;;;;;;9.52;8.05;;;27.10;65.10;;;;;;5056949;28;20052;-84
2023/06/04 09:48:37;;;;;;;9.27;7.72;;;27.20;65.50;;;;;;5067176;28;20021;-82
2023/06/04 09:51:19;;;;;;;8.80;6.88;;;27.20;65.40;;;;;;5072239;28;20060;-82
2023/06/04 09:53:55;;;;;;;10.60;7.65;;;27.20;64.80;;;;;;5071892;28;20087;-84
2023/06/04 09:56:21;;;;;;;9.48;6.97;;;27.20;64.80;;;;;;5057069;28;20100;-82
2023/06/04 09:58:49;;;;;;;9.32;6.80;;;27.30;64.40;;;;;;5055977;28;20057;-83
2023/06/04 10:01:15;;;;;;;8.40;6.57;;;27.30;63.70;;;;;;5055719;28;20021;-85
2023/06/04 10:03:48;;;;;;;10.80;7.00;;;27.30;63.60;;;;;;5056006;28;20035;-84
2023/06/04 10:06:17;;;;;;;13.33;9.60;;;27.30;63.20;;;;;;5056836;28;20028;-85
2023/06/04 10:08:45;;;;;;;10.05;7.80;;;27.30;63.20;;;;;;5056087;28;20335;-85
2023/06/04 10:11:13;;;;;;;10.65;7.60;;;27.40;62.90;;;;;;5054116;28;20028;-85
2023/06/04 10:13:47;;;;;;;9.90;8.85;;;27.40;63.00;;;;;;5055328;28;20025;-85
2023/06/04 10:16:13;;;;;;;10.20;6.93;;;27.50;62.70;;;;;;5055619;28;20029;-85
2023/06/04 10:18:39;;;;;;;9.70;6.68;;;27.50;62.70;;;;;;5056025;28;20484;-84
2023/06/04 10:21:07;;;;;;;9.07;6.45;;;27.50;62.40;;;;;;5055361;28;20083;-84
2023/06/04 10:23:33;;;;;;;10.43;6.18;;;27.50;62.10;;;;;;5056125;28;20025;-84
2023/06/04 10:26:00;;;;;;;9.48;6.43;;;27.50;62.30;;;;;;5055361;28;20044;-82
2023/06/04 10:28:26;;;;;;;10.68;6.72;;;27.50;62.30;;;;;;5053214;28;20035;-84
2023/06/04 10:30:52;;;;;;;8.30;5.85;;;27.50;62.20;;;;;;5053747;28;20037;-85
2023/06/04 10:33:23;;;;;;;7.25;6.00;;;27.50;62.50;;;;;;5055268;28;20028;-84
2023/06/04 10:35:51;;;;;;;7.60;6.07;;;27.50;62.30;;;;;;5055431;28;20029;-85
2023/06/04 10:38:18;;;;;;;9.90;6.78;;;27.50;62.30;;;;;;5054211;28;20134;-85
2023/06/04 10:40:44;;;;;;;9.77;7.35;;;27.60;62.00;;;;;;5054155;28;20052;-85
2023/06/04 10:43:11;;;;;;;9.85;7.20;;;27.60;61.80;;;;;;5053916;28;20044;-84
2023/06/04 10:45:37;;;;;;;8.25;6.93;;;27.60;61.50;;;;;;5055671;28;20052;-86
2023/06/04 10:48:08;;;;;;;9.57;6.45;;;27.60;61.70;;;;;;5058275;28;20123;-84
2023/06/04 10:50:35;;;;;;;11.48;7.38;;;27.60;61.70;;;;;;5055184;28;20029;-84
2023/06/04 10:53:05;;;;;;;8.95;6.95;;;27.70;61.60;;;;;;5053395;28;20049;-83
2023/06/04 10:55:31;;;;;;;7.75;6.43;;;27.80;61.30;;;;;;5054125;28;20048;-85
2023/06/04 10:58:02;;;;;;;11.07;6.85;;;27.80;61.10;;;;;;5054140;28;20027;-85
2023/06/04 11:00:42;;;;;;;10.18;6.45;;;27.80;60.40;;;;;;5053462;28;20025;-85
2023/06/04 11:03:10;;;;;;;7.80;5.65;;;27.80;60.30;;;;;;5053622;28;20021;-85
2023/06/04 11:05:47;;;;;;;7.35;5.68;;;27.80;60.10;;;;;;5053259;28;20094;-86
2023/06/04 11:08:14;;;;;;;8.88;6.50;;;27.80;59.50;;;;;;5051715;28;20106;-85
2023/06/04 11:10:44;;;;;;;9.10;6.78;;;27.80;59.20;;;;;;5053624;28;20322;-84
2023/06/04 11:13:11;;;;;;;9.45;6.00;;;27.90;59.70;;;;;;5053951;28;20582;-85
2023/06/04 11:15:44;;;;;;;10.75;6.72;;;27.90;60.10;;;;;;5054035;28;20033;-84
2023/06/04 11:18:36;;;;;;;9.23;6.53;;;27.90;60.60;;;;;;5057619;28;20023;-83
2023/06/04 11:21:01;;;;;;;11.45;7.70;;;27.90;61.00;;;;;;5060774;28;20464;-82
2023/06/04 11:23:27;;;;;;;9.13;7.25;;;27.90;61.40;;;;;;5054176;28;20021;-84
2023/06/04 11:25:53;;;;;;;8.88;7.95;;;27.90;61.70;;;;;;5053571;28;20465;-85
2023/06/04 11:28:21;;;;;;;10.00;7.63;;;27.90;61.90;;;;;;5053214;28;20013;-84
2023/06/04 11:31:08;;;;;;;12.18;7.57;;;28.00;62.10;;;;;;5053063;28;20087;-84
2023/06/04 11:33:46;;;;;;;8.90;7.35;;;27.90;62.60;;;;;;5052567;28;20120;-85
2023/06/04 11:36:27;;;;;;;9.20;7.30;;;27.90;63.60;;;;;;5052617;28;20033;-84
2023/06/04 11:39:00;;;;;;;11.25;7.50;;;27.80;63.10;;;;;;5053036;28;20040;-81
2023/06/04 11:41:30;;;;;;;8.50;6.88;;;27.80;63.50;;;;;;5053451;28;20020;-85
2023/06/04 11:43:57;;;;;;;8.40;7.00;;;27.80;63.40;;;;;;5053270;28;20017;-85
2023/06/04 11:46:23;;;;;;;10.93;7.28;;;27.80;63.60;;;;;;5053378;28;20055;-84
2023/06/04 11:48:53;;;;;;;11.32;7.40;;;27.70;63.80;;;;;;5053263;28;20025;-85
2023/06/04 11:51:23;;;;;;;9.68;7.25;;;27.70;64.30;;;;;;5052888;28;20033;-84
2023/06/04 11:53:49;;;;;;;10.55;7.38;;;27.60;64.30;;;;;;5052724;28;20132;-84
2023/06/04 11:56:15;;;;;;;11.02;7.55;;;27.60;64.30;;;;;;5052882;28;20060;-84
2023/06/04 11:58:42;;;;;;;9.23;7.25;;;27.50;65.10;;;;;;5052271;28;20025;-84
2023/06/04 12:01:08;;;;;;;11.23;7.63;;;27.50;64.60;;;;;;5052286;28;20028;-84
2023/06/04 12:03:39;;;;;;;7.97;6.78;;;27.50;64.60;;;;;;5052963;28;20035;-84
2023/06/04 12:06:15;;;;;;;8.80;7.20;;;27.40;64.70;;;;;;5053060;28;20096;-85
2023/06/04 12:08:53;;;;;;;9.20;7.55;;;27.40;64.90;;;;;;5052734;28;20100;-86
2023/06/04 12:11:25;;;;;;;12.05;8.20;;;27.30;64.80;;;;;;5051214;28;20040;-85
2023/06/04 12:13:50;;;;;;;11.85;7.55;;;27.20;65.00;;;;;;5052717;28;20100;-85
2023/06/04 12:16:16;;;;;;;8.90;7.07;;;27.20;64.90;;;;;;5052913;28;20112;-85
2023/06/04 12:18:42;;;;;;;9.35;7.63;;;27.10;65.10;;;;;;5052639;28;20021;-85
2023/06/04 12:21:28;;;;;;;11.20;7.88;;;27.10;64.90;;;;;;5053625;28;20021;-84
2023/06/04 12:24:06;;;;;;;10.27;7.10;;;27.10;65.20;;;;;;5053493;28;20033;-85
2023/06/04 12:26:37;;;;;;;9.85;7.07;;;27.20;65.10;;;;;;5052249;28;20071;-85
2023/06/04 12:29:11;;;;;;;9.35;7.20;;;27.30;64.40;;;;;;5057628;28;20025;-84
2023/06/04 12:31:41;;;;;;;11.10;7.22;;;27.30;64.70;;;;;;5061382;28;20025;-85
2023/06/04 12:34:07;;;;;;;7.70;6.75;;;27.50;64.50;;;;;;5054619;28;20552;-84
2023/06/04 12:36:36;;;;;;;7.40;6.05;;;27.50;63.80;;;;;;5053529;28;20115;-86
2023/06/04 12:39:03;;;;;;;10.02;7.03;;;27.50;63.50;;;;;;5055134;28;20021;-86
2023/06/04 12:41:30;;;;;;;9.30;6.53;;;27.60;63.60;;;;;;5055019;28;20035;-86
2023/06/04 12:43:56;;;;;;;10.32;6.97;;;27.60;63.30;;;;;;5063253;28;20021;-84
2023/06/04 12:46:22;;;;;;;8.77;7.07;;;27.60;62.70;;;;;;5069687;28;20009;-85